createdAt,value
2017-12-31T00:00:47.662Z,27
2017-12-31T00:01:47.318Z,27
2017-12-31T00:02:44.820Z,27
2017-12-31T00:03:44.576Z,27
2017-12-31T00:04:44.568Z,27
2017-12-31T00:05:44.965Z,27
2017-12-31T00:06:45.044Z,27
2017-12-31T00:07:45.080Z,27
2017-12-31T00:08:45.129Z,27
2017-12-31T00:09:45.193Z,27
2017-12-31T00:10:44.995Z,27
2017-12-31T00:11:47.927Z,27
2017-12-31T00:12:45.102Z,27
2017-12-31T00:13:48.392Z,27
2017-12-31T00:14:48.063Z,27
2017-12-31T00:15:45.258Z,27
2017-12-31T00:16:45.543Z,27
2017-12-31T00:17:45.362Z,27
2017-12-31T00:18:45.709Z,27
2017-12-31T00:19:45.408Z,27
2017-12-31T00:20:45.442Z,27
2017-12-31T00:21:45.512Z,27
2017-12-31T00:22:45.875Z,27
2017-12-31T00:23:45.618Z,27
2017-12-31T00:24:48.595Z,27
2017-12-31T00:25:46.078Z,27
2017-12-31T00:26:49.045Z,27
2017-12-31T00:27:45.936Z,27
2017-12-31T00:28:46.238Z,27
2017-12-31T00:29:46.377Z,27
2017-12-31T00:30:46.196Z,27
2017-12-31T00:31:49.077Z,27
2017-12-31T00:32:46.395Z,27
2017-12-31T00:33:46.674Z,27
2017-12-31T00:34:49.611Z,27
2017-12-31T00:35:46.383Z,27
2017-12-31T00:36:49.694Z,27
2017-12-31T00:37:49.769Z,27
2017-12-31T00:38:49.859Z,27
2017-12-31T00:39:46.989Z,27
2017-12-31T00:40:49.878Z,27
2017-12-31T00:41:49.962Z,27
2017-12-31T00:42:50.015Z,27
2017-12-31T00:43:46.946Z,27
2017-12-31T00:44:46.944Z,27
2017-12-31T00:45:46.921Z,27
2017-12-31T00:46:47.284Z,27
2017-12-31T00:47:47.354Z,27
2017-12-31T00:48:50.052Z,27
2017-12-31T00:49:47.533Z,27
2017-12-31T00:50:50.450Z,27
2017-12-31T00:51:50.132Z,27
2017-12-31T00:52:47.312Z,27
2017-12-31T00:53:50.539Z,27
2017-12-31T00:54:47.759Z,27
2017-12-31T00:55:47.569Z,27
2017-12-31T00:56:47.606Z,27
2017-12-31T00:57:47.582Z,27
2017-12-31T00:58:47.640Z,27
2017-12-31T00:59:50.938Z,27
2017-12-31T01:00:47.807Z,27
2017-12-31T01:01:48.148Z,27
2017-12-31T01:02:50.830Z,27
2017-12-31T01:03:48.004Z,27
2017-12-31T01:04:48.000Z,27
2017-12-31T01:05:48.348Z,27
2017-12-31T01:06:48.083Z,27
2017-12-31T01:07:50.944Z,27
2017-12-31T01:08:51.373Z,27
2017-12-31T01:09:48.526Z,27
2017-12-31T01:10:48.325Z,27
2017-12-31T01:11:51.587Z,27
2017-12-31T01:12:48.750Z,27
2017-12-31T01:13:51.628Z,27
2017-12-31T01:14:48.797Z,27
2017-12-31T01:15:48.553Z,27
2017-12-31T01:16:48.667Z,27
2017-12-31T01:17:48.758Z,27
2017-12-31T01:18:51.993Z,27
2017-12-31T01:19:49.158Z,27
2017-12-31T01:20:52.077Z,27
2017-12-31T01:21:48.961Z,27
2017-12-31T01:22:52.207Z,27
2017-12-31T01:23:52.288Z,27
2017-12-31T01:24:52.308Z,27
2017-12-31T01:25:49.305Z,27
2017-12-31T01:26:49.353Z,27
2017-12-31T01:27:49.288Z,27
2017-12-31T01:28:49.610Z,27
2017-12-31T01:29:49.433Z,27
2017-12-31T01:30:49.510Z,27
2017-12-31T01:31:52.473Z,27
2017-12-31T01:32:49.621Z,27
2017-12-31T01:33:49.931Z,27
2017-12-31T01:34:50.013Z,27
2017-12-31T01:35:53.015Z,27
2017-12-31T01:36:50.228Z,27
2017-12-31T01:37:53.169Z,27
2017-12-31T01:38:53.202Z,27
2017-12-31T01:39:50.083Z,27
2017-12-31T01:40:50.372Z,27
2017-12-31T01:41:50.568Z,27
2017-12-31T01:42:53.043Z,27
2017-12-31T01:43:50.261Z,27
2017-12-31T01:44:53.166Z,27
2017-12-31T01:45:50.324Z,27
2017-12-31T01:46:53.582Z,27
2017-12-31T01:47:53.607Z,27
2017-12-31T01:48:50.463Z,27
2017-12-31T01:49:53.443Z,27
2017-12-31T01:50:50.889Z,27
2017-12-31T01:51:50.943Z,27
2017-12-31T01:52:50.686Z,27
2017-12-31T01:53:53.921Z,27
2017-12-31T01:54:53.668Z,27
2017-12-31T01:55:51.050Z,27
2017-12-31T01:56:51.066Z,27
2017-12-31T01:57:50.818Z,27
2017-12-31T01:58:50.860Z,27
2017-12-31T01:59:54.150Z,27
2017-12-31T02:00:50.970Z,27
2017-12-31T02:01:53.955Z,27
2017-12-31T02:02:51.478Z,27
2017-12-31T02:03:51.500Z,27
2017-12-31T02:04:54.515Z,27
2017-12-31T02:05:54.498Z,27
2017-12-31T02:06:51.381Z,27
2017-12-31T02:07:54.600Z,27
2017-12-31T02:08:51.494Z,27
2017-12-31T02:09:54.751Z,27
2017-12-31T02:10:54.515Z,27
2017-12-31T02:11:51.729Z,27
2017-12-31T02:12:52.152Z,27
2017-12-31T02:13:54.758Z,27
2017-12-31T02:14:52.179Z,27
2017-12-31T02:15:55.358Z,27
2017-12-31T02:16:52.822Z,27
2017-12-31T02:17:52.623Z,27
2017-12-31T02:18:55.722Z,27
2017-12-31T02:19:52.882Z,27
2017-12-31T02:20:52.490Z,27
2017-12-31T02:21:52.589Z,27
2017-12-31T02:22:52.317Z,27
2017-12-31T02:23:55.524Z,27
2017-12-31T02:24:53.267Z,27
2017-12-31T02:25:55.672Z,27
2017-12-31T02:26:52.816Z,27
2017-12-31T02:27:52.544Z,27
2017-12-31T02:28:55.426Z,27
2017-12-31T02:29:55.383Z,27
2017-12-31T02:30:52.599Z,27
2017-12-31T02:31:55.848Z,26.9
2017-12-31T02:32:52.681Z,27
2017-12-31T02:33:55.567Z,27
2017-12-31T02:34:52.812Z,27
2017-12-31T02:35:52.798Z,27
2017-12-31T02:36:52.960Z,27
2017-12-31T02:37:53.223Z,27
2017-12-31T02:38:53.272Z,27
2017-12-31T02:39:56.256Z,27
2017-12-31T02:40:53.064Z,27
2017-12-31T02:41:53.155Z,27
2017-12-31T02:42:53.493Z,27
2017-12-31T02:43:53.589Z,27
2017-12-31T02:44:53.618Z,27
2017-12-31T02:45:53.642Z,27
2017-12-31T02:46:57.257Z,27
2017-12-31T02:47:56.352Z,27
2017-12-31T02:48:53.477Z,27
2017-12-31T02:49:56.384Z,27
2017-12-31T02:50:56.517Z,26.9
2017-12-31T02:51:53.604Z,27
2017-12-31T02:52:57.621Z,26.9
2017-12-31T02:53:57.010Z,27
2017-12-31T02:54:54.055Z,27
2017-12-31T02:55:57.111Z,27
2017-12-31T02:56:54.169Z,27
2017-12-31T02:57:57.134Z,27
2017-12-31T02:58:54.023Z,27
2017-12-31T02:59:54.065Z,27
2017-12-31T03:00:54.022Z,27
2017-12-31T03:01:56.913Z,27
2017-12-31T03:02:56.972Z,27
2017-12-31T03:03:54.171Z,26.9
2017-12-31T03:04:57.374Z,27
2017-12-31T03:05:54.613Z,27
2017-12-31T03:06:57.498Z,27
2017-12-31T03:07:57.249Z,27
2017-12-31T03:08:57.253Z,27
2017-12-31T03:09:54.456Z,27
2017-12-31T03:10:57.673Z,27
2017-12-31T03:11:54.918Z,27
2017-12-31T03:12:54.615Z,27
2017-12-31T03:13:57.885Z,27
2017-12-31T03:14:57.952Z,27
2017-12-31T03:15:57.659Z,27
2017-12-31T03:16:54.769Z,27
2017-12-31T03:17:58.028Z,27
2017-12-31T03:18:55.178Z,27
2017-12-31T03:19:58.159Z,27
2017-12-31T03:20:55.034Z,27
2017-12-31T03:21:55.022Z,27
2017-12-31T03:22:55.027Z,27
2017-12-31T03:23:58.274Z,27
2017-12-31T03:24:55.097Z,27
2017-12-31T03:25:58.389Z,26.9
2017-12-31T03:26:55.241Z,27
2017-12-31T03:27:55.274Z,27
2017-12-31T03:28:55.631Z,27
2017-12-31T03:29:55.625Z,27
2017-12-31T03:30:55.394Z,27
2017-12-31T03:31:58.621Z,26.9
2017-12-31T03:32:55.452Z,27
2017-12-31T03:33:58.309Z,27
2017-12-31T03:34:55.484Z,27
2017-12-31T03:35:58.728Z,27
2017-12-31T03:36:55.583Z,27
2017-12-31T03:37:55.950Z,27
2017-12-31T03:38:55.641Z,27
2017-12-31T03:39:58.916Z,27
2017-12-31T03:40:55.767Z,26.9
2017-12-31T03:41:56.152Z,27
2017-12-31T03:42:56.307Z,27
2017-12-31T03:43:56.332Z,27
2017-12-31T03:44:58.917Z,27
2017-12-31T03:45:56.036Z,27
2017-12-31T03:46:56.110Z,26.9
2017-12-31T03:47:59.212Z,27
2017-12-31T03:48:56.489Z,27
2017-12-31T03:49:56.222Z,27
2017-12-31T03:50:59.482Z,27
2017-12-31T03:51:56.621Z,27
2017-12-31T03:52:56.377Z,27
2017-12-31T03:53:56.512Z,27
2017-12-31T03:54:59.764Z,27
2017-12-31T03:55:56.826Z,27
2017-12-31T03:56:56.504Z,27
2017-12-31T03:57:59.757Z,27
2017-12-31T03:58:59.948Z,27
2017-12-31T03:59:56.715Z,27
2017-12-31T04:00:57.003Z,27
2017-12-31T04:01:59.898Z,27
2017-12-31T04:02:59.999Z,27
2017-12-31T04:03:57.087Z,27
2017-12-31T04:04:57.131Z,27
2017-12-31T04:05:56.919Z,27
2017-12-31T04:06:59.838Z,27
2017-12-31T04:07:57.100Z,27
2017-12-31T04:08:57.180Z,27
2017-12-31T04:10:00.327Z,27
2017-12-31T04:11:00.049Z,27
2017-12-31T04:12:00.497Z,27
2017-12-31T04:12:57.301Z,27
2017-12-31T04:13:57.381Z,27
2017-12-31T04:15:00.601Z,27
2017-12-31T04:15:57.413Z,27
2017-12-31T04:16:57.781Z,27
2017-12-31T04:17:57.856Z,27
2017-12-31T04:19:00.766Z,27
2017-12-31T04:19:57.923Z,26.9
2017-12-31T04:20:57.966Z,27
2017-12-31T04:21:58.056Z,27
2017-12-31T04:22:57.760Z,27
2017-12-31T04:23:58.131Z,27
2017-12-31T04:24:57.915Z,27
2017-12-31T04:25:58.290Z,27
2017-12-31T04:26:58.335Z,27
2017-12-31T04:27:58.396Z,27
2017-12-31T04:29:01.336Z,27
2017-12-31T04:29:58.232Z,27
2017-12-31T04:31:01.163Z,27
2017-12-31T04:31:58.350Z,27
2017-12-31T04:33:01.597Z,27
2017-12-31T04:33:58.501Z,27
2017-12-31T04:35:01.330Z,27
2017-12-31T04:35:58.544Z,26.9
2017-12-31T04:36:58.835Z,27
2017-12-31T04:37:58.574Z,26.9
2017-12-31T04:39:01.451Z,27
2017-12-31T04:39:58.676Z,27
2017-12-31T04:41:01.832Z,27
2017-12-31T04:41:58.718Z,27
2017-12-31T04:42:58.691Z,27
2017-12-31T04:44:01.999Z,26.9
2017-12-31T04:44:59.185Z,27
2017-12-31T04:45:59.242Z,27
2017-12-31T04:46:59.245Z,27
2017-12-31T04:48:02.142Z,27
2017-12-31T04:48:58.980Z,27
2017-12-31T04:50:01.863Z,27
2017-12-31T04:50:59.330Z,27
2017-12-31T04:51:58.963Z,27
2017-12-31T04:52:59.041Z,27
2017-12-31T04:53:59.071Z,27
2017-12-31T04:54:59.131Z,26.9
2017-12-31T04:55:59.179Z,27
2017-12-31T04:57:02.342Z,27
2017-12-31T04:57:59.198Z,27
2017-12-31T04:58:59.317Z,27
2017-12-31T04:59:59.401Z,27
2017-12-31T05:00:59.705Z,26.9
2017-12-31T05:02:02.735Z,27
2017-12-31T05:02:59.872Z,27
2017-12-31T05:03:59.619Z,27
2017-12-31T05:05:02.815Z,26.9
2017-12-31T05:05:59.656Z,27
2017-12-31T05:06:59.670Z,27
2017-12-31T05:07:59.996Z,27
2017-12-31T05:09:02.948Z,26.9
2017-12-31T05:09:59.784Z,27
2017-12-31T05:11:02.771Z,26.9
2017-12-31T05:11:59.922Z,27
2017-12-31T05:12:59.912Z,27
2017-12-31T05:14:00.077Z,27
2017-12-31T05:15:03.229Z,27
2017-12-31T05:16:03.294Z,27
2017-12-31T05:17:00.170Z,27
2017-12-31T05:18:03.510Z,26.9
2017-12-31T05:19:00.306Z,27
2017-12-31T05:20:00.365Z,27
2017-12-31T05:21:00.359Z,27
2017-12-31T05:22:00.427Z,27
2017-12-31T05:23:00.791Z,26.9
2017-12-31T05:24:03.791Z,27
2017-12-31T05:25:00.646Z,27
2017-12-31T05:26:03.936Z,27
2017-12-31T05:27:01.066Z,27
2017-12-31T05:28:01.112Z,27
2017-12-31T05:29:01.106Z,27
2017-12-31T05:30:01.194Z,26.9
2017-12-31T05:31:00.862Z,27
2017-12-31T05:32:00.882Z,27
2017-12-31T05:33:01.298Z,26.9
2017-12-31T05:34:03.956Z,27
2017-12-31T05:35:01.381Z,27
2017-12-31T05:36:01.457Z,26.9
2017-12-31T05:37:04.433Z,27
2017-12-31T05:38:01.566Z,27
2017-12-31T05:39:01.570Z,27
2017-12-31T05:40:04.278Z,27
2017-12-31T05:41:01.435Z,27
2017-12-31T05:42:04.754Z,27
2017-12-31T05:43:01.858Z,27
2017-12-31T05:44:04.467Z,27
2017-12-31T05:45:01.937Z,27
2017-12-31T05:46:04.907Z,27
2017-12-31T05:47:04.997Z,27
2017-12-31T05:48:04.737Z,27
2017-12-31T05:49:04.726Z,27
2017-12-31T05:50:01.892Z,27
2017-12-31T05:51:05.448Z,27
2017-12-31T05:52:01.961Z,27
2017-12-31T05:53:02.010Z,26.9
2017-12-31T05:54:02.389Z,27
2017-12-31T05:55:04.975Z,27
2017-12-31T05:56:02.210Z,27
2017-12-31T05:57:05.099Z,27
2017-12-31T05:58:02.605Z,27
2017-12-31T05:59:05.524Z,27
2017-12-31T06:00:05.211Z,27
2017-12-31T06:01:02.755Z,27
2017-12-31T06:02:02.443Z,26.9
2017-12-31T06:03:02.499Z,27
2017-12-31T06:04:02.490Z,27
2017-12-31T06:05:02.638Z,26.9
2017-12-31T06:06:02.991Z,27
2017-12-31T06:07:03.064Z,26.9
2017-12-31T06:08:02.828Z,27
2017-12-31T06:09:06.079Z,27
2017-12-31T06:10:02.933Z,27
2017-12-31T06:11:03.262Z,27
2017-12-31T06:12:03.074Z,26.9
2017-12-31T06:13:06.014Z,27
2017-12-31T06:14:03.543Z,27
2017-12-31T06:15:03.220Z,27
2017-12-31T06:16:06.151Z,27
2017-12-31T06:17:03.309Z,27
2017-12-31T06:18:03.659Z,27
2017-12-31T06:19:06.532Z,27
2017-12-31T06:20:03.407Z,27
2017-12-31T06:21:06.625Z,26.9
2017-12-31T06:22:09.022Z,27
2017-12-31T06:23:03.535Z,27
2017-12-31T06:24:06.432Z,27
2017-12-31T06:25:06.817Z,27
2017-12-31T06:26:03.979Z,27
2017-12-31T06:27:06.880Z,27
2017-12-31T06:28:04.026Z,27
2017-12-31T06:29:03.753Z,27
2017-12-31T06:30:04.206Z,27
2017-12-31T06:31:04.208Z,26.9
2017-12-31T06:32:06.810Z,27
2017-12-31T06:33:04.003Z,27
2017-12-31T06:34:04.357Z,27
2017-12-31T06:35:04.098Z,27
2017-12-31T06:36:04.520Z,27
2017-12-31T06:37:04.587Z,27
2017-12-31T06:38:04.573Z,27
2017-12-31T06:39:04.308Z,27
2017-12-31T06:40:04.751Z,26.9
2017-12-31T06:41:07.662Z,27
2017-12-31T06:42:04.862Z,27
2017-12-31T06:43:07.434Z,27
2017-12-31T06:44:07.467Z,27
2017-12-31T06:45:07.820Z,26.9
2017-12-31T06:46:04.981Z,27
2017-12-31T06:47:05.036Z,27
2017-12-31T06:48:05.063Z,27
2017-12-31T06:49:04.872Z,27
2017-12-31T06:50:08.106Z,27
2017-12-31T06:51:05.234Z,27
2017-12-31T06:52:05.354Z,27
2017-12-31T06:53:05.014Z,27
2017-12-31T06:54:05.140Z,26.9
2017-12-31T06:55:05.489Z,27
2017-12-31T06:56:08.080Z,27
2017-12-31T06:57:05.317Z,27
2017-12-31T06:58:05.613Z,27
2017-12-31T06:59:08.248Z,27
2017-12-31T07:00:08.353Z,27
2017-12-31T07:01:05.435Z,27
2017-12-31T07:02:05.775Z,27
2017-12-31T07:03:08.666Z,27
2017-12-31T07:04:08.357Z,27
2017-12-31T07:05:05.887Z,26.9
2017-12-31T07:06:05.711Z,27
2017-12-31T07:07:05.735Z,27
2017-12-31T07:08:08.888Z,27
2017-12-31T07:09:05.755Z,26.9
2017-12-31T07:10:05.875Z,27
2017-12-31T07:11:08.664Z,27
2017-12-31T07:12:06.125Z,27
2017-12-31T07:13:06.179Z,27
2017-12-31T07:14:05.895Z,27
2017-12-31T07:15:06.295Z,27
2017-12-31T07:16:08.853Z,26.9
2017-12-31T07:17:06.006Z,27
2017-12-31T07:18:06.402Z,27
2017-12-31T07:19:06.147Z,27
2017-12-31T07:20:06.528Z,27
2017-12-31T07:21:09.510Z,26.9
2017-12-31T07:22:09.502Z,27
2017-12-31T07:23:09.560Z,26.9
2017-12-31T07:24:06.779Z,27
2017-12-31T07:25:06.549Z,27
2017-12-31T07:26:06.830Z,26.9
2017-12-31T07:27:06.945Z,27
2017-12-31T07:28:06.972Z,27
2017-12-31T07:29:09.628Z,27
2017-12-31T07:30:07.105Z,27
2017-12-31T07:31:06.857Z,27
2017-12-31T07:32:10.105Z,26.9
2017-12-31T07:33:06.890Z,27
2017-12-31T07:34:09.806Z,27
2017-12-31T07:35:06.977Z,27
2017-12-31T07:36:07.091Z,26.9
2017-12-31T07:37:07.359Z,27
2017-12-31T07:38:10.329Z,26.9
2017-12-31T07:39:10.045Z,27
2017-12-31T07:40:07.270Z,26.9
2017-12-31T07:41:07.575Z,27
2017-12-31T07:42:07.371Z,27
2017-12-31T07:43:07.470Z,27
2017-12-31T07:44:10.693Z,27
2017-12-31T07:45:07.465Z,26.9
2017-12-31T07:46:07.598Z,27
2017-12-31T07:47:07.876Z,27
2017-12-31T07:48:10.844Z,27
2017-12-31T07:49:10.927Z,27
2017-12-31T07:50:08.099Z,27
2017-12-31T07:51:10.651Z,27
2017-12-31T07:52:10.999Z,27
2017-12-31T07:53:08.214Z,27
2017-12-31T07:54:11.104Z,27
2017-12-31T07:55:07.979Z,27
2017-12-31T07:56:08.058Z,27
2017-12-31T07:57:11.238Z,27
2017-12-31T07:58:11.301Z,27
2017-12-31T07:59:08.082Z,27
2017-12-31T08:00:11.345Z,27
2017-12-31T08:01:08.531Z,27
2017-12-31T08:02:08.319Z,27
2017-12-31T08:03:11.447Z,27
2017-12-31T08:04:11.543Z,27
2017-12-31T08:05:11.601Z,27
2017-12-31T08:06:11.581Z,27
2017-12-31T08:07:08.795Z,27
2017-12-31T08:08:11.688Z,27
2017-12-31T08:09:11.759Z,27
2017-12-31T08:10:11.833Z,27
2017-12-31T08:11:08.636Z,27
2017-12-31T08:12:11.841Z,27
2017-12-31T08:13:11.941Z,27
2017-12-31T08:14:08.846Z,27
2017-12-31T08:15:12.098Z,27
2017-12-31T08:16:09.248Z,27
2017-12-31T08:17:09.356Z,27
2017-12-31T08:18:12.264Z,27
2017-12-31T08:19:09.079Z,27
2017-12-31T08:20:09.178Z,27
2017-12-31T08:21:09.249Z,27
2017-12-31T08:22:09.329Z,27
2017-12-31T08:23:09.418Z,27
2017-12-31T08:24:09.435Z,27
2017-12-31T08:25:09.822Z,27
2017-12-31T08:26:12.473Z,27
2017-12-31T08:27:09.906Z,27.1
2017-12-31T08:28:09.659Z,27.1
2017-12-31T08:29:15.475Z,27.1
2017-12-31T08:30:13.000Z,27.1
2017-12-31T08:31:13.029Z,27.1
2017-12-31T08:32:12.748Z,27
2017-12-31T08:33:09.918Z,27.1
2017-12-31T08:34:10.310Z,27.1
2017-12-31T08:35:10.329Z,27.1
2017-12-31T08:36:13.226Z,27.1
2017-12-31T08:37:10.418Z,27.1
2017-12-31T08:38:10.179Z,27.1
2017-12-31T08:39:10.498Z,27.1
2017-12-31T08:40:13.127Z,27.1
2017-12-31T08:41:10.348Z,27.1
2017-12-31T08:42:13.269Z,27
2017-12-31T08:43:10.805Z,27.1
2017-12-31T08:44:10.627Z,27.1
2017-12-31T08:45:10.617Z,27.1
2017-12-31T08:46:11.049Z,27.1
2017-12-31T08:47:13.580Z,27.1
2017-12-31T08:48:11.155Z,27.1
2017-12-31T08:49:14.021Z,27.1
2017-12-31T08:50:11.219Z,27.1
2017-12-31T08:51:14.159Z,27.1
2017-12-31T08:52:11.337Z,27.1
2017-12-31T08:53:11.438Z,27.1
2017-12-31T08:54:14.330Z,27.1
2017-12-31T08:55:11.192Z,27.1
2017-12-31T08:56:14.474Z,27.1
2017-12-31T08:57:11.376Z,27.2
2017-12-31T08:58:11.741Z,27.1
2017-12-31T08:59:14.716Z,27.2
2017-12-31T09:00:14.747Z,27.2
2017-12-31T09:01:14.840Z,27.2
2017-12-31T09:02:14.879Z,27.2
2017-12-31T09:03:12.133Z,27.2
2017-12-31T09:04:14.749Z,27.2
2017-12-31T09:05:15.147Z,27.2
2017-12-31T09:06:14.869Z,27.1
2017-12-31T09:07:12.342Z,27.2
2017-12-31T09:08:12.360Z,27.2
2017-12-31T09:09:15.312Z,27.2
2017-12-31T09:10:15.341Z,27.2
2017-12-31T09:11:15.374Z,27.2
2017-12-31T09:12:15.415Z,27.1
2017-12-31T09:13:15.487Z,27.2
2017-12-31T09:14:12.311Z,27.2
2017-12-31T09:15:15.561Z,27.2
2017-12-31T09:16:12.360Z,27.2
2017-12-31T09:17:12.494Z,27.1
2017-12-31T09:18:12.539Z,27.2
2017-12-31T09:19:12.840Z,27.2
2017-12-31T09:20:15.754Z,27.1
2017-12-31T09:21:12.901Z,27.2
2017-12-31T09:22:12.624Z,27.1
2017-12-31T09:23:12.686Z,27.2
2017-12-31T09:24:12.760Z,27.2
2017-12-31T09:25:12.805Z,27.2
2017-12-31T09:26:12.909Z,27.2
2017-12-31T09:27:12.875Z,27.2
2017-12-31T09:28:12.958Z,27.1
2017-12-31T09:29:16.175Z,27.2
2017-12-31T09:30:13.360Z,27.2
2017-12-31T09:31:16.354Z,27.2
2017-12-31T09:32:13.173Z,27.2
2017-12-31T09:33:13.170Z,27.1
2017-12-31T09:34:13.559Z,27.2
2017-12-31T09:35:13.670Z,27.2
2017-12-31T09:36:16.251Z,27.2
2017-12-31T09:37:16.319Z,27.2
2017-12-31T09:38:16.718Z,27.2
2017-12-31T09:39:16.489Z,27.2
2017-12-31T09:40:13.639Z,27.2
2017-12-31T09:41:13.991Z,27.2
2017-12-31T09:42:16.933Z,27.2
2017-12-31T09:43:17.088Z,27.1
2017-12-31T09:44:13.927Z,27.2
2017-12-31T09:45:13.876Z,27.2
2017-12-31T09:46:17.148Z,27.2
2017-12-31T09:47:14.261Z,27.1
2017-12-31T09:48:14.332Z,27.2
2017-12-31T09:49:14.400Z,27.2
2017-12-31T09:50:14.165Z,27.2
2017-12-31T09:51:14.221Z,27.2
2017-12-31T09:52:14.659Z,27.1
2017-12-31T09:53:14.370Z,27.2
2017-12-31T09:54:17.697Z,27.2
2017-12-31T09:55:17.387Z,27.2
2017-12-31T09:56:14.654Z,27.2
2017-12-31T09:57:14.650Z,27.2
2017-12-31T09:58:17.888Z,27.2
2017-12-31T09:59:15.044Z,27.2
2017-12-31T10:00:14.738Z,27.2
2017-12-31T10:01:15.156Z,27.2
2017-12-31T10:02:14.935Z,27.2
2017-12-31T10:03:17.880Z,27.2
2017-12-31T10:04:15.118Z,27.2
2017-12-31T10:05:18.268Z,27.2
2017-12-31T10:06:17.991Z,27.2
2017-12-31T10:07:18.106Z,27.2
2017-12-31T10:08:18.135Z,27.2
2017-12-31T10:09:15.379Z,27.2
2017-12-31T10:10:15.465Z,27.1
2017-12-31T10:11:15.522Z,27.2
2017-12-31T10:12:15.792Z,27.2
2017-12-31T10:13:18.441Z,27.2
2017-12-31T10:14:15.701Z,27.2
2017-12-31T10:15:15.663Z,27.2
2017-12-31T10:16:15.795Z,27.2
2017-12-31T10:17:15.741Z,27.1
2017-12-31T10:18:18.698Z,27.2
2017-12-31T10:19:16.169Z,27.2
2017-12-31T10:20:18.779Z,27.2
2017-12-31T10:21:16.275Z,27.2
2017-12-31T10:22:19.209Z,27.2
2017-12-31T10:23:19.235Z,27.2
2017-12-31T10:24:16.419Z,27.2
2017-12-31T10:25:19.418Z,27.2
2017-12-31T10:26:19.432Z,27.2
2017-12-31T10:27:19.103Z,27.2
2017-12-31T10:28:16.312Z,27.2
2017-12-31T10:29:16.363Z,27.2
2017-12-31T10:30:16.733Z,27.2
2017-12-31T10:31:16.786Z,27.2
2017-12-31T10:32:16.865Z,27.2
2017-12-31T10:33:16.661Z,27.3
2017-12-31T10:34:19.497Z,27.3
2017-12-31T10:35:19.930Z,27.3
2017-12-31T10:36:19.721Z,27.3
2017-12-31T10:37:16.808Z,27.3
2017-12-31T10:38:19.792Z,27.3
2017-12-31T10:39:17.320Z,27.4
2017-12-31T10:40:17.416Z,27.4
2017-12-31T10:41:20.359Z,27.5
2017-12-31T10:42:17.583Z,27.4
2017-12-31T10:43:20.587Z,27.5
2017-12-31T10:44:20.303Z,27.5
2017-12-31T10:45:17.757Z,27.5
2017-12-31T10:46:17.499Z,27.5
2017-12-31T10:47:17.579Z,27.5
2017-12-31T10:48:17.896Z,27.5
2017-12-31T10:49:20.882Z,27.5
2017-12-31T10:50:17.996Z,27.5
2017-12-31T10:51:18.091Z,27.5
2017-12-31T10:52:17.729Z,27.5
2017-12-31T10:53:20.720Z,27.6
2017-12-31T10:54:21.046Z,27.5
2017-12-31T10:55:21.141Z,27.6
2017-12-31T10:56:17.935Z,27.6
2017-12-31T10:57:18.251Z,27.6
2017-12-31T10:58:18.299Z,27.6
2017-12-31T10:59:18.296Z,27.5
2017-12-31T11:00:18.008Z,27.6
2017-12-31T11:01:21.002Z,27.6
2017-12-31T11:02:21.331Z,27.6
2017-12-31T11:03:21.377Z,27.6
2017-12-31T11:04:21.020Z,27.6
2017-12-31T11:05:18.223Z,27.6
2017-12-31T11:06:21.430Z,27.6
2017-12-31T11:07:18.674Z,27.5
2017-12-31T11:08:21.593Z,27.5
2017-12-31T11:09:18.473Z,27.5
2017-12-31T11:10:18.516Z,27.5
2017-12-31T11:11:18.604Z,27.5
2017-12-31T11:12:18.986Z,27.5
2017-12-31T11:13:21.952Z,27.5
2017-12-31T11:14:21.636Z,27.5
2017-12-31T11:15:18.836Z,27.5
2017-12-31T11:16:19.168Z,27.5
2017-12-31T11:17:22.174Z,27.6
2017-12-31T11:18:21.918Z,27.5
2017-12-31T11:19:19.049Z,27.6
2017-12-31T11:20:19.344Z,27.6
2017-12-31T11:21:22.290Z,27.5
2017-12-31T11:22:22.313Z,27.6
2017-12-31T11:23:22.060Z,27.6
2017-12-31T11:24:19.194Z,27.5
2017-12-31T11:25:19.280Z,27.5
2017-12-31T11:26:19.277Z,27.5
2017-12-31T11:27:19.298Z,27.5
2017-12-31T11:28:19.368Z,27.5
2017-12-31T11:29:19.396Z,27.5
2017-12-31T11:30:19.845Z,27.5
2017-12-31T11:31:19.594Z,27.5
2017-12-31T11:32:22.454Z,27.5
2017-12-31T11:33:22.501Z,27.5
2017-12-31T11:34:19.702Z,27.5
2017-12-31T11:35:22.910Z,27.4
2017-12-31T11:36:20.030Z,27.5
2017-12-31T11:37:19.846Z,27.5
2017-12-31T11:38:19.831Z,27.5
2017-12-31T11:39:22.833Z,27.5
2017-12-31T11:40:23.232Z,27.6
2017-12-31T11:41:20.103Z,27.6
2017-12-31T11:42:23.014Z,27.6
2017-12-31T11:43:20.192Z,27.6
2017-12-31T11:44:23.425Z,27.6
2017-12-31T11:45:20.551Z,27.6
2017-12-31T11:46:20.346Z,27.7
2017-12-31T11:47:23.204Z,27.7
2017-12-31T11:48:23.571Z,27.6
2017-12-31T11:49:20.650Z,27.6
2017-12-31T11:50:23.587Z,27.6
2017-12-31T11:51:20.391Z,27.6
2017-12-31T11:52:20.466Z,27.6
2017-12-31T11:53:20.806Z,27.6
2017-12-31T11:54:20.562Z,27.6
2017-12-31T11:55:20.645Z,27.6
2017-12-31T11:56:20.766Z,27.6
2017-12-31T11:57:20.855Z,27.6
2017-12-31T11:58:24.048Z,27.6
2017-12-31T11:59:20.931Z,27.6
2017-12-31T12:00:21.268Z,27.6
2017-12-31T12:01:21.056Z,27.6
2017-12-31T12:02:21.060Z,27.6
2017-12-31T12:03:21.488Z,27.6
2017-12-31T12:04:21.491Z,27.6
2017-12-31T12:05:21.542Z,27.6
2017-12-31T12:06:21.247Z,27.7
2017-12-31T12:07:24.196Z,27.7
2017-12-31T12:08:21.343Z,27.7
2017-12-31T12:09:24.540Z,27.7
2017-12-31T12:10:21.407Z,27.7
2017-12-31T12:11:21.373Z,27.7
2017-12-31T12:12:21.375Z,27.7
2017-12-31T12:13:21.695Z,27.6
2017-12-31T12:14:21.798Z,27.6
2017-12-31T12:15:21.812Z,27.6
2017-12-31T12:16:21.537Z,27.6
2017-12-31T12:17:24.476Z,27.5
2017-12-31T12:18:24.578Z,27.6
2017-12-31T12:19:21.967Z,27.6
2017-12-31T12:20:21.638Z,27.7
2017-12-31T12:21:22.003Z,27.7
2017-12-31T12:22:24.898Z,27.8
2017-12-31T12:23:22.038Z,27.9
2017-12-31T12:24:25.027Z,28
2017-12-31T12:25:22.209Z,28
2017-12-31T12:26:22.280Z,28
2017-12-31T12:27:22.016Z,28
2017-12-31T12:28:25.277Z,27.9
2017-12-31T12:29:22.462Z,27.9
2017-12-31T12:30:22.294Z,27.9
2017-12-31T12:31:25.173Z,27.9
2017-12-31T12:32:25.233Z,27.9
2017-12-31T12:33:22.366Z,27.9
2017-12-31T12:34:25.575Z,27.9
2017-12-31T12:35:22.695Z,27.9
2017-12-31T12:36:25.681Z,27.8
2017-12-31T12:37:25.422Z,27.9
2017-12-31T12:38:22.610Z,27.9
2017-12-31T12:39:22.961Z,28
2017-12-31T12:40:22.734Z,28
2017-12-31T12:41:25.674Z,28
2017-12-31T12:42:23.218Z,28
2017-12-31T12:43:22.911Z,28.1
2017-12-31T12:44:23.245Z,28.1
2017-12-31T12:45:22.943Z,28
2017-12-31T12:46:26.164Z,28.1
2017-12-31T12:47:25.878Z,28
2017-12-31T12:48:23.473Z,28.1
2017-12-31T12:49:23.137Z,28
2017-12-31T12:50:23.495Z,28
2017-12-31T12:51:26.431Z,28
2017-12-31T12:52:26.138Z,27.9
2017-12-31T12:53:26.510Z,27.9
2017-12-31T12:54:23.403Z,27.9
2017-12-31T12:55:23.416Z,27.8
2017-12-31T12:56:23.757Z,27.8
2017-12-31T12:57:23.477Z,27.8
2017-12-31T12:58:26.442Z,27.8
2017-12-31T12:59:26.847Z,27.8
2017-12-31T13:00:23.991Z,27.7
2017-12-31T13:01:23.834Z,27.7
2017-12-31T13:02:27.006Z,27.7
2017-12-31T13:03:24.180Z,27.7
2017-12-31T13:04:23.961Z,27.7
2017-12-31T13:05:24.278Z,27.7
2017-12-31T13:06:27.261Z,27.7
2017-12-31T13:07:24.430Z,27.8
2017-12-31T13:08:24.199Z,27.7
2017-12-31T13:09:24.561Z,27.7
2017-12-31T13:10:24.297Z,27.8
2017-12-31T13:11:24.301Z,27.7
2017-12-31T13:12:24.611Z,27.7
2017-12-31T13:13:24.394Z,27.7
2017-12-31T13:14:24.719Z,27.7
2017-12-31T13:15:24.477Z,27.7
2017-12-31T13:16:24.441Z,27.7
2017-12-31T13:17:27.778Z,27.7
2017-12-31T13:18:27.798Z,27.7
2017-12-31T13:19:24.902Z,27.6
2017-12-31T13:20:27.876Z,27.7
2017-12-31T13:21:27.954Z,27.7
2017-12-31T13:22:25.207Z,27.6
2017-12-31T13:23:25.256Z,27.7
2017-12-31T13:24:27.898Z,27.7
2017-12-31T13:25:27.969Z,27.7
2017-12-31T13:26:25.133Z,27.7
2017-12-31T13:27:25.506Z,27.7
2017-12-31T13:28:25.608Z,27.7
2017-12-31T13:29:28.541Z,27.6
2017-12-31T13:30:25.400Z,27.6
2017-12-31T13:31:25.752Z,27.6
2017-12-31T13:32:25.753Z,27.6
2017-12-31T13:33:25.774Z,27.6
2017-12-31T13:34:25.852Z,27.6
2017-12-31T13:35:28.749Z,27.6
2017-12-31T13:36:25.648Z,27.6
2017-12-31T13:37:25.936Z,27.6
2017-12-31T13:38:26.045Z,27.6
2017-12-31T13:39:25.761Z,27.6
2017-12-31T13:40:25.783Z,27.6
2017-12-31T13:41:25.812Z,27.6
2017-12-31T13:42:26.163Z,27.6
2017-12-31T13:43:29.119Z,27.6
2017-12-31T13:44:26.072Z,27.5
2017-12-31T13:45:26.400Z,27.5
2017-12-31T13:46:26.198Z,27.5
2017-12-31T13:47:26.148Z,27.5
2017-12-31T13:48:26.579Z,27.5
2017-12-31T13:49:26.628Z,27.5
2017-12-31T13:50:29.488Z,27.5
2017-12-31T13:51:29.272Z,27.5